Αρχική σελίδα
METAR-TAF:

METAR-TAF

Αεροδρόμια :

Ακαπούλκο, Μεξικό

γεωγραφικό πλάτος: 16-46N, γεωγραφικό μήκος: 099-45W, υψόμετρο: 5 μ

Παρών καιρός

Η αναφορά έγινε 1 ώρα και 7 λεπτά πριν, στις 04:46 UTC
Ήπιος άνεμος
Θερμοκρασία 25°C
Υγρασία 94%
Πίεση 1013 hPa
Ορατότητα: 9.7 χλμ
Καθαρός ουρανός

METAR: MMAA 180446Z 00000KT 6SM SKC 25/24 A2991 RMK HZY

Χρόνος: 23:53 (05:53 UTC)

Πρόγνωση Καιρού

Η αναφορά έγινε 37 λεπτά πριν, στις 05:16 UTC
Η πρόγνωση ισχύει από τις 18 στις 06 UTC έως τις 19 στις 12 UTC
Άνεμος 5 kt από Β/BA
Ορατότητα: 10 χλμ
Διάσπαρτα νέφη σε ύψος 30000 πόδια
Από 18 στις 1600 UTC
Άνεμος 10 kt από ΝΔ
Ορατότητα: 10 χλμ
Διάσπαρτα νέφη σε ύψος 30000 πόδια
Από 19 στις 0300 UTC
Άνεμος 5 kt από Β/BA
Ορατότητα: 10 χλμ
Διάσπαρτα νέφη σε ύψος 1500 πόδια

TAF: MMAA 180516Z 1806/1912 03005KT P6SM SCT300 TX31/1818Z TN23/1812Z FM181600 23010KT P6SM SCT300 FM190300 03005KT P6SM SCT015

Μετεωρολογικές αναφορές και προγνώσεις για περισσότερα από 4000 αεροδρόμια (δελτία METAR και TAF).

Οι διαθέσιμοι σταθμοί απεικονίζονται στο χάρτη με κίτρινες και κόκκινες κουκκίδες.

Μετακινήστε το ποντίκι πάνω από τις κουκκίδες για να δείτε το όνομα του σταθμού.

Στη συνέχεια, κάντε κλικ για να δείτε τις μετεωρολογικές αναφορές και τις προγνώσεις καιρού.

Για να αλλάξετε το χάρτη: κάντε κλικ στα πράσινα κουμπιά με τον μαύρο σταυρό για να ζουμάρετε, στο πράσινο κουμπί με την παύλα για να αφαιρέσετε το ζουμ ή στα πράσινα βέλη για να αντιπαραβάλλετε χάρτες.


METAR-TAF: